Time;durP1;ratioP1;P1;durP2;ratioP2;P2;SDS_P1;SDS_P2;PMS_P1;PMS_P2;Temp;Humidity;BMP_temperature;BMP_pressure;BME280_temperature;BME280_humidity;BME280_pressure;Samples;Min_cycle;Max_cycle;Signal;HPM_P1;HPM_P2
2022/03/03 00:01:58;;;;;;;;;;;1.60;90.70;;;;;;5014521;28;19933;-81
2022/03/03 00:04:24;;;;;;;;;;;3.40;91.50;;;;;;5015146;28;20337;-81
2022/03/03 00:06:51;;;;;;;;;;;1.60;90.80;;;;;;4998155;28;19921;-81
2022/03/03 00:09:18;;;;;;;;;;;1.50;90.90;;;;;;5015797;28;19937;-81
2022/03/03 00:11:44;;;;;;;;;;;1.40;90.40;;;;;;5011525;28;19960;-80
2022/03/03 00:14:12;;;;;;;;;;;1.40;90.60;;;;;;5014656;28;19929;-81
2022/03/03 00:16:39;;;;;;;;;;;1.40;91.20;;;;;;5013037;28;19941;-81
2022/03/03 00:19:06;;;;;;;;;;;1.40;91.20;;;;;;5008003;28;20469;-82
2022/03/03 00:21:33;;;;;;;;;;;1.40;91.20;;;;;;4990915;28;20585;-81
2022/03/03 00:24:00;;;;;;;;;;;1.40;91.30;;;;;;5011512;28;20348;-81
2022/03/03 00:26:26;;;;;;;;;;;1.40;91.30;;;;;;5023031;28;19993;-81
2022/03/03 00:28:53;;;;;;;;;;;1.30;91.00;;;;;;4989660;28;19925;-80
2022/03/03 00:31:23;;;;;;;;;;;1.40;91.40;;;;;;5021327;28;20285;-80
2022/03/03 00:33:49;;;;;;;;;;;1.30;90.80;;;;;;5017370;28;19921;-82
2022/03/03 00:36:16;;;;;;;;;;;1.30;91.40;;;;;;5000528;28;20524;-81
2022/03/03 00:38:43;;;;;;;;;;;1.30;91.40;;;;;;5013251;28;19925;-79
2022/03/03 00:41:10;;;;;;;;;;;1.30;91.40;;;;;;5013301;28;19944;-81
2022/03/03 00:43:36;;;;;;;;;;;1.20;91.40;;;;;;5024777;28;19921;-81
2022/03/03 00:46:03;;;;;;;;;;;1.20;91.30;;;;;;5013945;28;19925;-80
2022/03/03 00:48:31;;;;;;;;;;;1.10;91.30;;;;;;5000208;28;19925;-81
2022/03/03 00:50:59;;;;;;;;;;;1.10;91.40;;;;;;5015078;28;19929;-81
2022/03/03 00:53:26;;;;;;;;;;;1.00;91.00;;;;;;5031729;28;20015;-81
2022/03/03 00:55:53;;;;;;;;;;;1.00;91.50;;;;;;4996293;28;19926;-80
2022/03/03 00:58:20;;;;;;;;;;;1.00;91.60;;;;;;5014527;28;19922;-81
2022/03/03 01:00:46;;;;;;;;;;;0.90;91.60;;;;;;5016534;28;19925;-81
2022/03/03 01:03:13;;;;;;;;;;;0.80;91.00;;;;;;5009503;28;20610;-80
2022/03/03 01:05:41;;;;;;;;;;;0.80;91.70;;;;;;5018774;28;19921;-80
2022/03/03 01:08:10;;;;;;;;;;;0.80;91.80;;;;;;5007764;28;19937;-81
2022/03/03 01:10:37;;;;;;;;;;;0.70;92.10;;;;;;5011544;28;19921;-80
2022/03/03 01:13:04;;;;;;;;;;;0.60;91.30;;;;;;4998435;28;19928;-81
2022/03/03 01:15:30;;;;;;;;;;;0.60;92.00;;;;;;5016002;28;19917;-81
2022/03/03 01:17:57;;;;;;;;;;;0.60;92.10;;;;;;5017700;28;19921;-80
2022/03/03 01:20:24;;;;;;;;;;;0.60;92.20;;;;;;5021171;28;20219;-81
2022/03/03 01:22:52;;;;;;;;;;;0.50;92.00;;;;;;5011231;28;19921;-81
2022/03/03 01:25:19;;;;;;;;;;;0.50;92.30;;;;;;5012607;28;19929;-82
2022/03/03 01:27:45;;;;;;;;;;;0.60;92.30;;;;;;5012425;28;20362;-82
2022/03/03 01:30:12;;;;;;;;;;;0.60;92.40;;;;;;5011695;28;20019;-81
2022/03/03 01:32:39;;;;;;;;;;;0.50;92.30;;;;;;5011035;28;20590;-81
2022/03/03 01:35:06;;;;;;;;;;;0.50;92.00;;;;;;5003918;28;20412;-81
2022/03/03 01:37:33;;;;;;;;;;;-0.70;91.80;;;;;;4995686;28;19999;-81
2022/03/03 01:40:01;;;;;;;;;;;0.50;92.30;;;;;;5014341;28;19932;-82
2022/03/03 01:42:28;;;;;;;;;;;0.40;92.40;;;;;;4996332;28;20417;-81
2022/03/03 01:44:54;;;;;;;;;;;0.40;92.10;;;;;;5004395;28;20509;-81
2022/03/03 01:47:22;;;;;;;;;;;0.40;92.20;;;;;;5027407;28;20306;-81
2022/03/03 01:49:50;;;;;;;;;;;0.30;91.90;;;;;;5013783;28;19937;-81
2022/03/03 01:52:17;;;;;;;;;;;0.30;91.90;;;;;;5014460;28;19925;-81
2022/03/03 01:54:44;;;;;;;;;;;0.30;92.20;;;;;;5015690;28;19921;-81
2022/03/03 01:57:12;;;;;;;;;;;0.30;92.50;;;;;;5016873;28;19945;-81
2022/03/03 01:59:39;;;;;;;;;;;0.20;92.40;;;;;;5004353;28;20476;-82
2022/03/03 02:02:07;;;;;;;;;;;0.20;92.40;;;;;;5011236;28;19931;-82
2022/03/03 02:04:33;;;;;;;;;;;0.10;92.10;;;;;;5025803;28;19933;-81
2022/03/03 02:07:00;;;;;;;;;;;0.10;92.50;;;;;;5009333;28;19932;-82
2022/03/03 02:09:27;;;;;;;;;;;0.10;92.40;;;;;;5011805;28;19925;-81
2022/03/03 02:11:54;;;;;;;;;;;0.10;92.60;;;;;;5012274;28;19922;-81
2022/03/03 02:14:22;;;;;;;;;;;0.10;92.70;;;;;;5013515;28;20504;-82
2022/03/03 02:16:49;;;;;;;;;;;0.10;92.70;;;;;;5010299;28;19940;-82
2022/03/03 02:19:17;;;;;;;;;;;0.10;92.70;;;;;;5001171;28;19936;-80
2022/03/03 02:21:46;;;;;;;;;;;0.00;92.70;;;;;;5012889;28;19922;-82
2022/03/03 02:24:13;;;;;;;;;;;0.00;92.20;;;;;;5011694;28;19925;-80
2022/03/03 02:26:41;;;;;;;;;;;0.00;92.70;;;;;;5001064;28;20001;-81
2022/03/03 02:29:08;;;;;;;;;;;0.00;92.70;;;;;;5018093;28;19921;-79
2022/03/03 02:31:35;;;;;;;;;;;-0.10;92.70;;;;;;5010144;28;19925;-80
2022/03/03 02:34:02;;;;;;;;;;;-0.10;92.80;;;;;;5014797;28;19981;-80
2022/03/03 02:36:29;;;;;;;;;;;-0.10;92.50;;;;;;5030296;28;19916;-80
2022/03/03 02:38:58;;;;;;;;;;;-0.10;92.50;;;;;;5010689;28;19996;-82
2022/03/03 02:41:25;;;;;;;;;;;-0.10;92.80;;;;;;4992210;28;19967;-82
2022/03/03 02:43:52;;;;;;;;;;;-0.10;92.90;;;;;;5005446;28;20019;-81
2022/03/03 02:46:19;;;;;;;;;;;-0.20;92.90;;;;;;5010845;28;19935;-82
2022/03/03 02:48:46;;;;;;;;;;;-0.20;93.00;;;;;;4994252;28;19926;-82
2022/03/03 02:51:13;;;;;;;;;;;-0.20;93.00;;;;;;5015015;28;20024;-82
2022/03/03 02:53:40;;;;;;;;;;;-0.20;92.50;;;;;;5011096;28;20360;-82
2022/03/03 02:56:08;;;;;;;;;;;-0.30;92.90;;;;;;5029470;28;19936;-81
2022/03/03 02:58:34;;;;;;;;;;;-0.30;92.90;;;;;;5028043;28;20448;-81
2022/03/03 03:01:02;;;;;;;;;;;-0.40;92.80;;;;;;5018025;28;19921;-82
2022/03/03 03:03:29;;;;;;;;;;;-0.50;92.40;;;;;;5012580;28;20415;-82
2022/03/03 03:05:56;;;;;;;;;;;-2.10;92.30;;;;;;5007249;28;19930;-81
2022/03/03 03:08:23;;;;;;;;;;;-0.50;93.00;;;;;;5026135;28;20367;-82
2022/03/03 03:10:49;;;;;;;;;;;-0.60;93.00;;;;;;5009484;28;20013;-82
2022/03/03 03:13:18;;;;;;;;;;;-0.60;93.10;;;;;;5005293;28;19925;-81
2022/03/03 03:15:45;;;;;;;;;;;-0.70;93.10;;;;;;5012736;28;19944;-81
2022/03/03 03:18:13;;;;;;;;;;;-0.70;93.30;;;;;;5010913;28;19933;-80
2022/03/03 03:20:39;;;;;;;;;;;-0.60;93.40;;;;;;4999261;28;19936;-81
2022/03/03 03:23:06;;;;;;;;;;;-0.70;93.20;;;;;;5015095;28;20605;-81
2022/03/03 03:25:33;;;;;;;;;;;-0.70;93.50;;;;;;5014240;28;20370;-81
2022/03/03 03:28:00;;;;;;;;;;;-0.70;93.40;;;;;;5014976;28;19931;-82
2022/03/03 03:30:28;;;;;;;;;;;-0.60;93.80;;;;;;5010210;28;19984;-80
2022/03/03 03:32:55;;;;;;;;;;;-0.50;93.60;;;;;;5010422;28;19937;-81
2022/03/03 03:35:21;;;;;;;;;;;-0.60;93.90;;;;;;5019917;28;20346;-81
2022/03/03 03:37:48;;;;;;;;;;;-1.70;93.50;;;;;;5028008;28;19999;-82
2022/03/03 03:40:16;;;;;;;;;;;-0.50;94.00;;;;;;5007577;28;20356;-80
2022/03/03 03:42:42;;;;;;;;;;;-0.50;94.10;;;;;;5013122;28;20028;-80
2022/03/03 03:45:09;;;;;;;;;;;-0.50;93.90;;;;;;5026155;28;19926;-81
2022/03/03 03:47:38;;;;;;;;;;;-0.50;94.10;;;;;;5013666;28;19925;-81
2022/03/03 03:50:05;;;;;;;;;;;-0.50;94.10;;;;;;5015798;28;20020;-81
2022/03/03 03:52:32;;;;;;;;;;;-0.50;93.80;;;;;;5033171;28;19925;-80
2022/03/03 03:54:59;;;;;;;;;;;-0.50;94.30;;;;;;5026753;28;19909;-80
2022/03/03 03:57:25;;;;;;;;;;;-0.50;94.30;;;;;;5022917;28;19943;-81
2022/03/03 03:59:52;;;;;;;;;;;-0.50;93.80;;;;;;4995409;28;19936;-82
2022/03/03 04:02:19;;;;;;;;;;;0.30;94.70;;;;;;5013901;28;19928;-83
2022/03/03 04:04:47;;;;;;;;;;;-0.50;94.20;;;;;;5001560;28;19940;-80
2022/03/03 04:07:14;;;;;;;;;;;-0.60;94.30;;;;;;5016097;28;19929;-82
2022/03/03 04:09:40;;;;;;;;;;;-0.60;94.00;;;;;;5014498;28;19997;-80
2022/03/03 04:12:08;;;;;;;;;;;-0.60;94.50;;;;;;4996089;28;19921;-80
2022/03/03 04:14:34;;;;;;;;;;;-0.60;94.20;;;;;;5014956;28;19934;-80
2022/03/03 04:17:01;;;;;;;;;;;-0.60;94.50;;;;;;5019410;28;19941;-80
2022/03/03 04:19:28;;;;;;;;;;;-0.60;94.50;;;;;;5026105;28;19921;-80
2022/03/03 04:21:56;;;;;;;;;;;-0.70;94.50;;;;;;5017093;28;20003;-80
2022/03/03 04:24:23;;;;;;;;;;;-0.70;94.60;;;;;;5015759;28;19925;-81
2022/03/03 04:26:50;;;;;;;;;;;-0.70;94.80;;;;;;5023016;28;19964;-81
2022/03/03 04:29:16;;;;;;;;;;;-0.70;94.80;;;;;;5039569;28;19921;-82
2022/03/03 04:31:43;;;;;;;;;;;-0.70;94.80;;;;;;5016396;28;19925;-80
2022/03/03 04:34:10;;;;;;;;;;;-0.70;94.30;;;;;;5015673;28;19933;-82
2022/03/03 04:36:37;;;;;;;;;;;-0.80;94.70;;;;;;5030587;28;20005;-81
2022/03/03 04:39:05;;;;;;;;;;;-0.80;94.70;;;;;;5000034;28;19932;-82
2022/03/03 04:41:31;;;;;;;;;;;-0.90;94.50;;;;;;5003728;28;20190;-83
2022/03/03 04:43:58;;;;;;;;;;;-0.90;94.90;;;;;;5009964;28;19929;-83
2022/03/03 04:46:25;;;;;;;;;;;-0.90;95.10;;;;;;5009651;28;19932;-83
2022/03/03 04:48:52;;;;;;;;;;;-0.80;95.20;;;;;;5010597;28;20290;-82
2022/03/03 04:51:19;;;;;;;;;;;-0.80;95.20;;;;;;5008292;28;20408;-82
2022/03/03 04:53:45;;;;;;;;;;;-0.80;94.80;;;;;;5009181;28;20632;-82
2022/03/03 04:56:14;;;;;;;;;;;-0.80;95.00;;;;;;5006848;28;21328;-82
2022/03/03 04:58:40;;;;;;;;;;;-0.80;95.30;;;;;;5008757;28;19921;-82
2022/03/03 05:01:07;;;;;;;;;;;-0.80;94.90;;;;;;5008550;28;20528;-82
2022/03/03 05:03:34;;;;;;;;;;;-0.80;95.30;;;;;;5010055;28;20584;-82
2022/03/03 05:06:01;;;;;;;;;;;-0.80;95.40;;;;;;5009729;28;19944;-83
2022/03/03 05:08:27;;;;;;;;;;;-0.80;95.40;;;;;;5008836;28;19929;-82
2022/03/03 05:10:54;;;;;;;;;;;-0.80;95.40;;;;;;5008170;28;19928;-82
2022/03/03 05:13:22;;;;;;;;;;;-0.90;95.00;;;;;;5009182;28;19933;-82
2022/03/03 05:15:49;;;;;;;;;;;-0.90;95.50;;;;;;5008261;28;19933;-82
2022/03/03 05:18:15;;;;;;;;;;;-0.90;95.60;;;;;;5008741;28;19929;-82
2022/03/03 05:20:42;;;;;;;;;;;-0.90;95.10;;;;;;5008497;28;19944;-82
2022/03/03 05:23:10;;;;;;;;;;;-0.90;95.10;;;;;;5007640;28;20270;-82
2022/03/03 05:25:36;;;;;;;;;;;-0.90;95.70;;;;;;5008149;28;20867;-83
2022/03/03 05:28:04;;;;;;;;;;;-0.90;95.50;;;;;;5006805;28;19932;-82
2022/03/03 05:30:32;;;;;;;;;;;0.80;96.50;;;;;;5008226;28;19929;-82
2022/03/03 05:32:59;;;;;;;;;;;-0.90;95.50;;;;;;5006266;28;20002;-82
2022/03/03 05:35:25;;;;;;;;;;;-0.90;95.50;;;;;;5008130;28;20255;-82
2022/03/03 05:37:52;;;;;;;;;;;-0.90;95.90;;;;;;4993262;28;19929;-85
2022/03/03 05:40:19;;;;;;;;;;;-0.90;95.90;;;;;;4991761;28;19933;-85
2022/03/03 05:42:46;;;;;;;;;;;-0.90;95.50;;;;;;5005642;28;19921;-85
2022/03/03 05:45:13;;;;;;;;;;;-1.00;95.70;;;;;;5022385;28;20469;-84
2022/03/03 05:47:41;;;;;;;;;;;-0.90;95.60;;;;;;5025328;28;19929;-85
2022/03/03 05:50:10;;;;;;;;;;;-1.00;95.80;;;;;;4991459;28;19932;-85
2022/03/03 05:52:36;;;;;;;;;;;-1.00;96.00;;;;;;5026511;28;19963;-84
2022/03/03 05:55:04;;;;;;;;;;;-1.00;95.80;;;;;;5014295;28;19932;-84
2022/03/03 05:57:34;;;;;;;;;;;-1.00;95.80;;;;;;4992408;28;19932;-84
2022/03/03 06:00:03;;;;;;;;;;;-1.00;96.00;;;;;;5014278;28;19944;-85
2022/03/03 06:02:48;;;;;;;;;;;-1.00;96.30;;;;;;5026285;28;19931;-85
2022/03/03 06:05:18;;;;;;;;;;;-1.00;95.90;;;;;;4991112;28;19926;-82
2022/03/03 06:07:46;;;;;;;;;;;-1.00;96.30;;;;;;5008003;28;19937;-82
2022/03/03 06:10:13;;;;;;;;;;;-1.00;96.30;;;;;;5008171;28;19984;-82
2022/03/03 06:12:47;;;;;;;;;;;-1.10;95.80;;;;;;5008494;28;19961;-83
2022/03/03 06:15:14;;;;;;;;;;;-1.10;96.00;;;;;;5019268;28;19929;-84
2022/03/03 06:17:43;;;;;;;;;;;-1.10;95.90;;;;;;5006262;28;19933;-84
2022/03/03 06:20:12;;;;;;;;;;;-1.10;96.40;;;;;;4990619;28;20416;-85
2022/03/03 06:22:39;;;;;;;;;;;-1.10;96.00;;;;;;5005628;28;19934;-84
2022/03/03 06:25:07;;;;;;;;;;;-1.10;96.10;;;;;;5006802;28;19921;-84
2022/03/03 06:27:34;;;;;;;;;;;-1.10;96.50;;;;;;5011248;28;19928;-84
2022/03/03 06:30:01;;;;;;;;;;;-1.00;96.30;;;;;;5002775;28;19932;-81
2022/03/03 06:32:28;;;;;;;;;;;-1.00;96.80;;;;;;5006669;28;20409;-81
2022/03/03 06:34:55;;;;;;;;;;;-0.90;96.60;;;;;;5006684;28;19925;-82
2022/03/03 06:37:23;;;;;;;;;;;-0.80;96.60;;;;;;5007386;28;19928;-81
2022/03/03 06:39:50;;;;;;;;;;;-0.70;96.80;;;;;;4984190;28;20004;-82
2022/03/03 06:42:17;;;;;;;;;;;-0.70;97.30;;;;;;5006167;28;19921;-85
2022/03/03 06:44:43;;;;;;;;;;;-0.60;97.40;;;;;;4999479;28;20515;-81
2022/03/03 06:47:10;;;;;;;;;;;-0.80;97.40;;;;;;5003824;28;19932;-82
2022/03/03 06:49:37;;;;;;;;;;;0.00;98.00;;;;;;5006183;28;19921;-82
2022/03/03 06:52:06;;;;;;;;;;;0.40;98.60;;;;;;5008871;28;19929;-83
2022/03/03 06:54:35;;;;;;;;;;;1.00;99.20;;;;;;5012092;28;19929;-83
2022/03/03 06:57:02;;;;;;;;;;;2.10;99.90;;;;;;4997121;28;19936;-83
2022/03/03 06:59:29;;;;;;;;;;;2.20;99.90;;;;;;5015343;28;19943;-82
2022/03/03 07:01:59;;;;;;;;;;;3.90;99.90;;;;;;5027947;28;20082;-82
2022/03/03 07:04:26;;;;;;;;;;;3.60;99.90;;;;;;5023118;28;19925;-84
2022/03/03 07:06:53;;;;;;;;;;;4.30;99.90;;;;;;5015160;28;20365;-84
2022/03/03 07:09:20;;;;;;;;;;;4.80;99.90;;;;;;5014628;28;19925;-81
2022/03/03 07:11:49;;;;;;;;;;;5.30;99.90;;;;;;5008704;28;19921;-82
2022/03/03 07:14:18;;;;;;;;;;;5.90;99.90;;;;;;4988050;28;20015;-82
2022/03/03 07:16:45;;;;;;;;;;;6.20;99.90;;;;;;5010384;28;20441;-82
2022/03/03 07:19:23;;;;;;;;;;;6.70;99.90;;;;;;4990103;28;19940;-84
2022/03/03 07:21:57;;;;;;;;;;;7.30;99.90;;;;;;4994424;28;19929;-82
2022/03/03 07:24:29;;;;;;;;;;;7.90;99.90;;;;;;5012330;28;19948;-83
2022/03/03 07:26:59;;;;;;;;;;;8.50;99.90;;;;;;4996434;28;19976;-82
2022/03/03 07:29:26;;;;;;;;;;;9.00;99.90;;;;;;5006940;28;19971;-82
2022/03/03 07:31:56;;;;;;;;;;;10.00;99.90;;;;;;5010614;28;19937;-84
2022/03/03 07:34:29;;;;;;;21.80;11.30;;;10.30;99.90;;;;;;5026377;28;20649;-84
2022/03/03 07:36:57;;;;;;;;;;;10.50;99.90;;;;;;4996857;28;20067;-83
2022/03/03 07:39:30;;;;;;;;;;;10.80;99.90;;;;;;5014730;28;19933;-84
2022/03/03 07:41:59;;;;;;;;;;;11.10;99.90;;;;;;5010090;28;19953;-84
2022/03/03 07:44:28;;;;;;;;;;;12.10;99.80;;;;;;4990415;28;19921;-84
2022/03/03 07:46:56;;;;;;;;;;;11.70;99.40;;;;;;5023792;28;19932;-83
2022/03/03 07:49:23;;;;;;;;;;;12.00;99.20;;;;;;5011205;28;19960;-83
2022/03/03 07:51:50;;;;;;;;;;;12.50;99.90;;;;;;4993304;28;20393;-83
2022/03/03 07:54:17;;;;;;;;;;;12.80;99.80;;;;;;5010799;28;19980;-84
2022/03/03 07:56:47;;;;;;;;;;;12.90;99.20;;;;;;5011580;28;20023;-82
2022/03/03 07:59:14;;;;;;;;;;;;;;;;;;4988911;28;19929;-84
2022/03/03 08:01:44;;;;;;;;;;;13.40;98.40;;;;;;4989919;28;20235;-84
2022/03/03 08:04:15;;;;;;;18.40;10.80;;;14.10;98.60;;;;;;5003763;28;19929;-84
2022/03/03 08:06:44;;;;;;;22.80;10.67;;;13.80;97.80;;;;;;5009664;28;20206;-83
2022/03/03 08:09:11;;;;;;;19.23;10.43;;;14.30;97.50;;;;;;5009592;28;20203;-83
2022/03/03 08:11:41;;;;;;;20.53;10.93;;;14.00;97.10;;;;;;5010281;28;20283;-83
2022/03/03 08:14:09;;;;;;;19.47;10.70;;;14.20;96.80;;;;;;5008560;28;20288;-84
2022/03/03 08:16:38;;;;;;;19.10;10.83;;;14.20;95.20;;;;;;5007322;28;20214;-83
2022/03/03 08:19:07;;;;;;;24.07;11.23;;;14.10;94.70;;;;;;5010601;28;20564;-84
2022/03/03 08:21:35;;;;;;;19.00;10.63;;;14.10;94.00;;;;;;5009344;28;20283;-83
2022/03/03 08:24:03;;;;;;;20.47;10.40;;;14.20;95.50;;;;;;5010601;28;20230;-83
2022/03/03 08:26:30;;;;;;;20.23;11.03;;;14.30;94.70;;;;;;4992136;28;20202;-83
2022/03/03 08:28:57;;;;;;;19.77;10.97;;;14.50;94.40;;;;;;4991711;28;20223;-84
2022/03/03 08:31:33;;;;;;;17.50;9.80;;;14.90;93.50;;;;;;4990456;28;20213;-83
2022/03/03 08:34:09;;;;;;;19.23;10.63;;;14.90;94.30;;;;;;5007708;28;20249;-83
2022/03/03 08:36:45;;;;;;;18.77;10.80;;;14.90;93.30;;;;;;5006916;28;20225;-83
2022/03/03 08:39:15;;;;;;;19.80;10.50;;;14.90;92.90;;;;;;4991507;28;20777;-83
2022/03/03 08:41:44;;;;;;;19.90;9.73;;;14.80;91.90;;;;;;5009242;28;20222;-83
2022/03/03 08:44:12;;;;;;;19.87;9.97;;;14.60;91.60;;;;;;4990334;28;20229;-84
2022/03/03 08:46:41;;;;;;;20.40;9.90;;;14.50;90.60;;;;;;5010455;28;20206;-84
2022/03/03 08:49:10;;;;;;;19.20;9.77;;;14.40;89.20;;;;;;5008940;28;20225;-84
2022/03/03 08:51:40;;;;;;;21.07;9.73;;;13.60;84.70;;;;;;5007323;28;20623;-84
2022/03/03 08:54:07;;;;;;;19.83;10.07;;;13.60;84.70;;;;;;5011542;28;20305;-84
2022/03/03 08:56:34;;;;;;;17.37;9.30;;;13.40;86.80;;;;;;4992403;28;20218;-84
2022/03/03 08:59:01;;;;;;;20.33;8.87;;;13.60;85.70;;;;;;5007756;28;20665;-85
2022/03/03 09:01:29;;;;;;;17.33;9.30;;;13.20;84.40;;;;;;5009335;28;20730;-85
2022/03/03 09:03:58;;;;;;;20.63;9.80;;;12.80;82.10;;;;;;4994457;28;20244;-84
2022/03/03 09:06:25;;;;;;;17.60;9.33;;;12.70;83.10;;;;;;5009418;28;20210;-85
2022/03/03 09:08:54;;;;;;;22.53;10.13;;;12.60;83.70;;;;;;5010827;28;20214;-84
2022/03/03 09:11:21;;;;;;;17.47;9.03;;;12.50;82.60;;;;;;5010133;28;20217;-86
2022/03/03 09:13:48;;;;;;;17.53;9.03;;;;;;;;;;4993065;28;20222;-86
2022/03/03 09:16:16;;;;;;;15.50;8.37;;;12.00;81.80;;;;;;5009971;28;20210;-85
2022/03/03 09:18:43;;;;;;;21.20;8.67;;;12.40;84.40;;;;;;4995503;28;20213;-85
2022/03/03 09:21:10;;;;;;;20.67;9.80;;;12.40;84.30;;;;;;5009388;28;20253;-83
2022/03/03 09:23:41;;;;;;;19.47;9.03;;;12.20;81.50;;;;;;4989356;28;20237;-86
2022/03/03 09:26:12;;;;;;;23.80;9.73;;;;;;;;;;4994987;28;20239;-87
2022/03/03 09:28:45;;;;;;;25.67;9.90;;;;;;;;;;5010007;28;20217;-86
2022/03/03 09:31:13;;;;;;;23.23;9.37;;;11.40;80.40;;;;;;5012379;28;20242;-86
2022/03/03 09:33:40;;;;;;;23.03;9.90;;;10.90;80.50;;;;;;5012638;28;20230;-86
2022/03/03 09:36:07;;;;;;;19.37;9.17;;;11.30;80.90;;;;;;5009765;28;20830;-86
2022/03/03 09:38:34;;;;;;;21.57;9.43;;;10.70;80.90;;;;;;5010816;28;20237;-86
2022/03/03 09:41:01;;;;;;;26.30;10.80;;;10.60;80.80;;;;;;4992894;28;20222;-86
2022/03/03 09:43:31;;;;;;;21.17;9.23;;;10.40;81.90;;;;;;4991635;28;20796;-86
2022/03/03 09:45:58;;;;;;;22.37;9.30;;;;;;;;;;5011462;28;20221;-87
2022/03/03 09:48:26;;;;;;;22.00;8.83;;;10.30;81.50;;;;;;4999715;28;20293;-87
2022/03/03 09:50:53;;;;;;;23.83;10.20;;;10.40;81.90;;;;;;5012813;28;20202;-86
2022/03/03 09:53:20;;;;;;;22.47;9.27;;;10.50;82.70;;;;;;5013086;28;20234;-85
2022/03/03 09:55:49;;;;;;;19.23;8.60;;;10.40;82.30;;;;;;4993845;28;20302;-85
2022/03/03 09:58:17;;;;;;;20.17;9.07;;;10.60;81.50;;;;;;5012271;28;20513;-87
2022/03/03 10:00:46;;;;;;;20.57;9.03;;;;;;;;;;5003443;28;20325;-85
2022/03/03 10:03:16;;;;;;;21.63;8.30;;;10.80;80.40;;;;;;5013022;28;20210;-85
2022/03/03 10:05:47;;;;;;;21.80;8.53;;;10.90;79.70;;;;;;5008968;28;20282;-86
2022/03/03 10:08:15;;;;;;;19.47;7.90;;;11.00;78.40;;;;;;5005397;28;20238;-86
2022/03/03 10:10:45;;;;;;;21.43;8.37;;;12.20;80.00;;;;;;5007014;28;20217;-83
2022/03/03 10:13:16;;;;;;;20.17;8.43;;;11.20;78.30;;;;;;5007420;28;20231;-84
2022/03/03 10:15:45;;;;;;;15.43;6.70;;;11.40;79.20;;;;;;5002473;28;20225;-84
2022/03/03 10:18:14;;;;;;;21.93;8.17;;;11.30;77.20;;;;;;5010746;28;20228;-85
2022/03/03 10:20:48;;;;;;;24.60;7.87;;;11.40;76.60;;;;;;5029174;28;20241;-85
2022/03/03 10:23:16;;;;;;;22.03;8.57;;;11.50;75.00;;;;;;5003367;28;20318;-86
2022/03/03 10:25:45;;;;;;;17.60;7.97;;;11.60;74.90;;;;;;5005158;28;20218;-85
2022/03/03 10:28:15;;;;;;;14.60;5.70;;;12.20;73.60;;;;;;5007134;28;20229;-85
2022/03/03 10:30:59;;;;;;;17.40;7.40;;;11.60;73.60;;;;;;5007250;28;20268;-85
2022/03/03 10:33:29;;;;;;;17.57;8.23;;;11.70;73.70;;;;;;4990593;28;20236;-84
2022/03/03 10:36:08;;;;;;;19.57;8.40;;;11.70;73.10;;;;;;5004944;28;20303;-83
2022/03/03 10:38:48;;;;;;;21.43;8.70;;;11.90;74.80;;;;;;5005624;28;20226;-83
2022/03/03 10:41:36;;;;;;;19.10;7.17;;;12.10;75.40;;;;;;5008773;28;20217;-82
2022/03/03 10:44:06;;;;;;;19.63;8.33;;;12.40;74.90;;;;;;4994588;28;20238;-82
2022/03/03 10:46:36;;;;;;;19.70;7.83;;;12.50;74.70;;;;;;5011690;28;20241;-82
2022/03/03 10:49:21;;;;;;;19.83;8.67;;;12.60;74.60;;;;;;4992225;28;20240;-84
2022/03/03 10:51:48;;;;;;;18.67;8.27;;;12.70;75.00;;;;;;5008330;28;20217;-83
2022/03/03 10:54:15;;;;;;;17.77;8.47;;;12.80;74.10;;;;;;5008573;28;20844;-84
2022/03/03 10:56:46;;;;;;;16.93;6.47;;;12.90;72.90;;;;;;4996151;28;20546;-84
2022/03/03 10:59:21;;;;;;;16.63;7.43;;;13.10;72.80;;;;;;4992786;28;20232;-84
2022/03/03 11:01:51;;;;;;;17.10;7.97;;;12.80;72.20;;;;;;5006522;28;20242;-84
2022/03/03 11:04:20;;;;;;;15.63;7.43;;;13.00;72.20;;;;;;5010889;28;20250;-83
2022/03/03 11:06:52;;;;;;;18.87;8.50;;;13.00;70.50;;;;;;5010879;28;20214;-83
2022/03/03 11:09:22;;;;;;;15.40;7.03;;;13.20;71.00;;;;;;5007329;28;20234;-84
2022/03/03 11:11:49;;;;;;;21.33;8.37;;;13.40;71.30;;;;;;5006935;28;20298;-84
2022/03/03 11:14:16;;;;;;;14.47;7.70;;;13.40;69.70;;;;;;4989429;28;20239;-85
2022/03/03 11:16:43;;;;;;;15.67;7.93;;;13.50;70.80;;;;;;4988842;28;20218;-85
2022/03/03 11:19:12;;;;;;;14.90;7.63;;;13.60;69.00;;;;;;4995941;28;20229;-84
2022/03/03 11:21:39;;;;;;;14.43;7.10;;;13.60;69.60;;;;;;5016736;28;20775;-83
2022/03/03 11:24:08;;;;;;;19.37;8.70;;;13.80;71.50;;;;;;5008133;28;20294;-84
2022/03/03 11:26:42;;;;;;;15.13;7.37;;;13.90;69.40;;;;;;4992963;28;20215;-84
2022/03/03 11:29:12;;;;;;;17.77;8.47;;;13.90;70.40;;;;;;5007573;28;20219;-85
2022/03/03 11:31:40;;;;;;;17.37;8.17;;;13.90;69.80;;;;;;5011205;28;20230;-86
2022/03/03 11:34:23;;;;;;;17.20;8.30;;;14.00;69.40;;;;;;4987433;28;20235;-85
2022/03/03 11:36:51;;;;;;;19.27;8.73;;;14.00;69.30;;;;;;5009673;28;20709;-84
2022/03/03 11:39:36;;;;;;;;;;;14.00;68.40;;;;;;4991484;28;20278;-84
2022/03/03 11:42:16;;;;;;;;;;;14.40;68.90;;;;;;5007784;28;19929;-86
2022/03/03 11:44:43;;;;;;;;;;;14.20;68.20;;;;;;4992176;28;19936;-83
2022/03/03 11:47:17;;;;;;;;;;;14.30;68.20;;;;;;5008306;28;20022;-85
2022/03/03 11:49:59;;;;;;;;;;;14.40;69.40;;;;;;5012805;28;19940;-83
2022/03/03 11:52:27;;;;;;;;;;;14.50;68.40;;;;;;5004091;28;19967;-84
2022/03/03 11:54:54;;;;;;;;;;;14.60;68.10;;;;;;5008893;28;20629;-85
2022/03/03 11:57:27;;;;;;;;;;;14.70;68.30;;;;;;5017094;28;19953;-84
2022/03/03 11:59:55;;;;;;;;;;;14.80;68.80;;;;;;5015765;28;19921;-84
2022/03/03 12:02:28;;;;;;;;;;;14.80;68.30;;;;;;5014950;28;19932;-85
2022/03/03 12:05:09;;;;;;;;;;;14.90;67.10;;;;;;4996056;28;19965;-83
2022/03/03 12:07:37;;;;;;;;;;;15.00;66.50;;;;;;5010401;28;19922;-84
2022/03/03 12:10:12;;;;;;;;;;;15.00;67.30;;;;;;5012084;28;19929;-85
2022/03/03 12:12:39;;;;;;;;;;;15.20;67.50;;;;;;5012097;28;19932;-84
2022/03/03 12:15:06;;;;;;;;;;;15.30;67.60;;;;;;4998817;28;19929;-84
2022/03/03 12:17:36;;;;;;;;;;;14.90;66.10;;;;;;4996186;28;19968;-83
2022/03/03 12:20:22;;;;;;;;;;;15.30;65.20;;;;;;4995496;28;19926;-85
2022/03/03 12:23:04;;;;;;;;;;;15.30;64.70;;;;;;5003432;28;19929;-85
2022/03/03 12:25:50;;;;;;;;;;;15.30;64.80;;;;;;5003785;28;20394;-84
2022/03/03 12:28:20;;;;;;;;;;;15.30;64.10;;;;;;5016972;28;20292;-83
2022/03/03 12:30:48;;;;;;;;;;;14.10;64.30;;;;;;5023731;28;19925;-82
2022/03/03 12:33:20;;;;;;;;;;;15.40;64.20;;;;;;5004834;28;19932;-83
2022/03/03 12:35:47;;;;;;;;;;;15.40;64.00;;;;;;5005339;28;20084;-81
2022/03/03 12:38:14;;;;;;;;;;;15.50;65.00;;;;;;4990779;28;20006;-83
2022/03/03 12:40:41;;;;;;;;;;;15.70;65.90;;;;;;5014940;28;20337;-83
2022/03/03 12:43:11;;;;;;;;;;;15.60;63.10;;;;;;5012409;28;19925;-82
2022/03/03 12:45:40;;;;;;;;;;;15.60;63.40;;;;;;5011496;28;19978;-84
2022/03/03 12:48:07;;;;;;;;;;;15.60;62.30;;;;;;5026923;28;19944;-85
2022/03/03 12:50:35;;;;;;;;;;;15.60;61.70;;;;;;5012396;28;20425;-83
2022/03/03 12:53:04;;;;;;;;;;;15.40;61.20;;;;;;5013744;28;19956;-84
2022/03/03 12:55:32;;;;;;;;;;;15.40;61.70;;;;;;5010302;28;20254;-85
2022/03/03 12:58:00;;;;;;;;;;;15.40;61.30;;;;;;5011203;28;19929;-85
2022/03/03 13:00:27;;;;;;;;;;;15.40;61.80;;;;;;5009473;28;21347;-84
2022/03/03 13:02:56;;;;;;;;;;;15.50;61.50;;;;;;5012424;28;19929;-83
2022/03/03 13:05:50;;;;;;;;;;;15.50;61.20;;;;;;5019309;28;19910;-83
2022/03/03 13:08:22;;;;;;;;;;;15.40;61.70;;;;;;4989789;28;19925;-86
2022/03/03 13:10:49;;;;;;;;;;;15.50;62.70;;;;;;5000221;28;19964;-85
2022/03/03 13:13:16;;;;;;;;;;;15.90;61.80;;;;;;4990873;28;20227;-86
2022/03/03 13:15:44;;;;;;;;;;;15.50;61.50;;;;;;5004098;28;19929;-85
2022/03/03 13:18:13;;;;;;;;;;;15.60;62.40;;;;;;5008165;28;19925;-86
2022/03/03 13:20:42;;;;;;;;;;;15.60;63.00;;;;;;5007027;28;19921;-87
2022/03/03 13:23:10;;;;;;;;;;;15.50;62.80;;;;;;5014350;28;19979;-87
2022/03/03 13:25:37;;;;;;;;;;;15.50;63.20;;;;;;5010861;28;19935;-86
2022/03/03 13:28:04;;;;;;;;;;;15.40;62.50;;;;;;5007845;28;19979;-86
2022/03/03 13:30:31;;;;;;;;;;;15.40;63.00;;;;;;5013689;28;19937;-86
2022/03/03 13:32:58;;;;;;;;;;;15.20;62.10;;;;;;4996271;28;19936;-86
2022/03/03 13:35:37;;;;;;;;;;;15.20;62.90;;;;;;5009626;28;19936;-86
2022/03/03 13:38:04;;;;;;;;;;;15.20;63.80;;;;;;5008842;28;20104;-86
2022/03/03 13:40:32;;;;;;;;;;;15.30;64.20;;;;;;4988408;28;19960;-86
2022/03/03 13:43:00;;;;;;;;;;;15.30;63.40;;;;;;5018896;28;19935;-86
2022/03/03 13:45:27;;;;;;;;;;;15.30;62.70;;;;;;5003411;28;19925;-86
2022/03/03 13:48:01;;;;;;;;;;;15.30;63.20;;;;;;5002457;28;19928;-87
2022/03/03 13:50:29;;;;;;;;;;;15.30;63.70;;;;;;5001334;28;19921;-87
2022/03/03 13:53:11;;;;;;;;;;;15.30;63.40;;;;;;5015479;28;19925;-86
2022/03/03 13:55:38;;;;;;;22.47;10.27;;;15.30;63.20;;;;;;5003944;28;19925;-86
2022/03/03 13:58:06;;;;;;;19.17;9.00;;;15.40;63.60;;;;;;5005839;28;20232;-85
2022/03/03 14:00:39;;;;;;;18.87;9.77;;;15.40;62.60;;;;;;4991844;28;20344;-86